createdAt,value
2017-10-30T00:00:40.218Z,12.20
2017-10-30T00:03:07.264Z,9.37
2017-10-30T00:05:34.310Z,8.90
2017-10-30T00:08:00.608Z,10.20
2017-10-30T00:10:26.897Z,10.20
2017-10-30T00:12:53.195Z,10.30
2017-10-30T00:15:20.275Z,11.60
2017-10-30T00:17:46.566Z,11.97
2017-10-30T00:20:12.842Z,10.63
2017-10-30T00:22:40.135Z,11.77
2017-10-30T00:25:06.415Z,9.43
2017-10-30T00:27:33.433Z,12.43
2017-10-30T00:29:59.711Z,12.57
2017-10-30T00:32:26.005Z,8.53
2017-10-30T00:34:53.955Z,18.00
2017-10-30T00:37:20.226Z,12.23
2017-10-30T00:39:46.527Z,11.27
2017-10-30T00:42:12.804Z,12.10
2017-10-30T00:44:39.109Z,9.13
2017-10-30T00:47:06.113Z,7.50
2017-10-30T00:49:32.410Z,9.07
2017-10-30T00:51:58.679Z,14.37
2017-10-30T00:54:24.946Z,14.30
2017-10-30T00:56:51.977Z,9.27
2017-10-30T00:59:18.275Z,10.47
2017-10-30T01:01:44.572Z,11.90
2017-10-30T01:04:10.876Z,7.93
2017-10-30T01:06:37.202Z,8.90
2017-10-30T01:09:03.528Z,12.20
2017-10-30T01:11:29.830Z,9.70
2017-10-30T01:13:56.107Z,7.30
2017-10-30T01:16:22.401Z,7.30
2017-10-30T01:18:48.704Z,6.23
2017-10-30T01:21:15.014Z,7.20
2017-10-30T01:23:41.283Z,15.83
2017-10-30T01:26:09.047Z,7.10
2017-10-30T01:28:35.302Z,9.80
2017-10-30T01:31:02.339Z,7.93
2017-10-30T01:33:29.354Z,6.37
2017-10-30T01:35:55.718Z,7.43
2017-10-30T01:38:22.781Z,10.83
2017-10-30T01:40:49.090Z,9.43
2017-10-30T01:43:16.132Z,9.13
2017-10-30T01:45:43.185Z,7.30
2017-10-30T01:48:10.229Z,9.40
2017-10-30T01:50:37.289Z,8.33
2017-10-30T01:53:03.592Z,8.27
2017-10-30T01:55:29.908Z,6.50
2017-10-30T01:57:56.235Z,13.63
2017-10-30T02:00:22.559Z,8.17
2017-10-30T02:02:48.857Z,8.77
2017-10-30T02:05:15.181Z,9.30
2017-10-30T02:07:41.478Z,5.20
2017-10-30T02:10:07.781Z,10.80
2017-10-30T02:12:34.108Z,8.07
2017-10-30T02:15:00.426Z,8.93
2017-10-30T02:17:26.735Z,9.90
2017-10-30T02:19:53.033Z,8.83
2017-10-30T02:22:20.090Z,11.27
2017-10-30T02:24:47.150Z,9.10
2017-10-30T02:27:13.455Z,5.33
2017-10-30T02:29:40.495Z,7.33
2017-10-30T02:32:06.806Z,7.57
2017-10-30T02:34:33.101Z,8.10
2017-10-30T02:36:59.406Z,7.50
2017-10-30T02:39:26.439Z,5.80
2017-10-30T02:41:55.434Z,8.90
2017-10-30T02:44:22.518Z,6.10
2017-10-30T02:46:48.833Z,7.60
2017-10-30T02:49:15.150Z,7.40
2017-10-30T02:51:42.235Z,9.60
2017-10-30T02:54:08.561Z,6.93
2017-10-30T02:56:34.882Z,10.57
2017-10-30T02:59:01.187Z,6.03
2017-10-30T03:01:28.280Z,3.63
2017-10-30T03:03:54.578Z,9.00
2017-10-30T03:06:20.913Z,6.80
2017-10-30T03:08:47.229Z,3.70
2017-10-30T03:11:13.545Z,8.43
2017-10-30T03:13:42.398Z,5.80
2017-10-30T03:16:09.179Z,9.07
2017-10-30T03:18:35.883Z,9.70
2017-10-30T03:21:02.175Z,9.30
2017-10-30T03:23:28.487Z,8.93
2017-10-30T03:25:55.518Z,8.03
2017-10-30T03:28:22.557Z,10.50
2017-10-30T03:30:48.851Z,7.83
2017-10-30T03:33:15.181Z,6.33
2017-10-30T03:35:41.480Z,5.40
2017-10-30T03:38:07.782Z,4.23
2017-10-30T03:40:34.070Z,4.80
2017-10-30T03:43:00.358Z,4.80
2017-10-30T03:45:26.686Z,6.60
2017-10-30T03:47:53.743Z,7.17
2017-10-30T03:50:20.037Z,6.77
2017-10-30T03:52:46.362Z,8.77
2017-10-30T03:55:12.676Z,7.17
2017-10-30T03:57:39.832Z,5.67
2017-10-30T04:00:06.091Z,9.83
2017-10-30T04:02:33.133Z,5.90
2017-10-30T04:05:00.914Z,5.80
2017-10-30T04:07:27.939Z,5.93
2017-10-30T04:09:54.282Z,8.80
2017-10-30T04:12:21.293Z,5.23
2017-10-30T04:14:47.558Z,3.50
2017-10-30T04:17:14.590Z,5.13
2017-10-30T04:19:40.861Z,6.17
2017-10-30T04:22:07.881Z,10.40
2017-10-30T04:24:34.938Z,7.70
2017-10-30T04:27:01.950Z,8.10
2017-10-30T04:29:28.246Z,5.60
2017-10-30T04:31:54.523Z,5.17
2017-10-30T04:34:20.791Z,5.40
2017-10-30T04:36:47.069Z,7.10
2017-10-30T04:39:14.330Z,5.70
2017-10-30T04:41:40.604Z,5.90
2017-10-30T04:44:06.923Z,7.13
2017-10-30T04:46:33.203Z,5.90
2017-10-30T04:48:59.505Z,3.83
2017-10-30T04:51:25.790Z,10.17
2017-10-30T04:53:52.090Z,8.90
2017-10-30T04:56:18.377Z,7.20
2017-10-30T04:58:44.662Z,6.63
2017-10-30T05:01:10.932Z,6.30
2017-10-30T05:03:37.228Z,5.10
2017-10-30T05:06:03.515Z,7.97
2017-10-30T05:08:29.806Z,10.87
2017-10-30T05:10:56.101Z,6.43
2017-10-30T05:13:22.367Z,6.17
2017-10-30T05:15:49.382Z,5.70
2017-10-30T05:18:15.660Z,4.00
2017-10-30T05:20:41.962Z,6.30
2017-10-30T05:23:08.982Z,4.30
2017-10-30T05:25:35.286Z,6.20
2017-10-30T05:28:01.554Z,3.60
2017-10-30T05:30:27.833Z,6.37
2017-10-30T05:32:54.105Z,4.17
2017-10-30T05:35:20.412Z,3.70
2017-10-30T05:37:46.682Z,5.80
2017-10-30T05:40:12.958Z,3.60
2017-10-30T05:42:40.159Z,4.57
2017-10-30T05:45:07.175Z,3.53
2017-10-30T05:47:33.445Z,2.63
2017-10-30T05:50:00.460Z,3.77
2017-10-30T05:52:26.734Z,4.77
2017-10-30T05:54:53.726Z,3.80
2017-10-30T05:57:19.985Z,3.10
2017-10-30T05:59:46.249Z,6.40
2017-10-30T06:02:12.528Z,4.67
2017-10-30T06:04:38.829Z,4.13
2017-10-30T06:07:05.109Z,3.47
2017-10-30T06:09:32.163Z,3.77
2017-10-30T06:11:59.186Z,5.63
2017-10-30T06:14:25.466Z,3.50
2017-10-30T06:16:51.764Z,2.50
2017-10-30T06:19:18.785Z,9.20
2017-10-30T06:21:45.902Z,5.53
2017-10-30T06:24:12.192Z,4.43
2017-10-30T06:26:39.228Z,3.27
2017-10-30T06:29:05.516Z,5.87
2017-10-30T06:31:31.779Z,4.80
2017-10-30T06:33:58.066Z,2.10
2017-10-30T06:36:24.321Z,5.07
2017-10-30T06:38:50.616Z,4.77
2017-10-30T06:41:16.885Z,1.93
2017-10-30T06:43:43.169Z,3.70
2017-10-30T06:46:09.461Z,5.33
2017-10-30T06:48:35.778Z,3.07
2017-10-30T06:51:02.847Z,5.27
2017-10-30T06:53:29.907Z,2.90
2017-10-30T06:55:56.198Z,4.73
2017-10-30T06:58:22.494Z,3.37
2017-10-30T07:00:48.775Z,3.30
2017-10-30T07:03:15.829Z,2.83
2017-10-30T07:05:42.841Z,3.30
2017-10-30T07:08:09.151Z,2.27
2017-10-30T07:10:35.434Z,7.10
2017-10-30T07:13:02.498Z,6.47
2017-10-30T07:15:29.738Z,5.17
2017-10-30T07:17:56.078Z,5.37
2017-10-30T07:20:22.379Z,4.07
2017-10-30T07:22:48.685Z,8.47
2017-10-30T07:25:14.989Z,5.87
2017-10-30T07:27:42.438Z,5.93
2017-10-30T07:30:08.809Z,7.90
2017-10-30T07:32:35.114Z,5.80
2017-10-30T07:35:01.391Z,6.60
2017-10-30T07:37:28.429Z,4.07
2017-10-30T07:39:54.758Z,6.30
2017-10-30T07:42:21.819Z,7.93
2017-10-30T07:44:48.141Z,4.33
2017-10-30T07:47:15.214Z,5.70
2017-10-30T07:49:41.526Z,5.03
2017-10-30T07:52:08.124Z,6.80
2017-10-30T07:54:34.433Z,5.23
2017-10-30T07:57:00.745Z,4.27
2017-10-30T07:59:27.091Z,4.70
2017-10-30T08:01:53.401Z,2.97
2017-10-30T08:04:19.738Z,5.80
2017-10-30T08:06:46.050Z,3.57
2017-10-30T08:09:12.369Z,3.80
2017-10-30T08:11:39.463Z,3.73
2017-10-30T08:14:06.326Z,7.53
2017-10-30T08:16:33.450Z,2.90
2017-10-30T08:18:59.778Z,2.70
2017-10-30T08:21:26.110Z,3.80
2017-10-30T08:23:52.531Z,3.13
2017-10-30T08:26:18.831Z,10.03
2017-10-30T08:28:45.918Z,4.40
2017-10-30T08:31:12.328Z,3.43
2017-10-30T08:33:39.461Z,4.70
2017-10-30T08:36:05.821Z,6.20
2017-10-30T08:38:32.143Z,5.93
2017-10-30T08:40:58.455Z,2.43
2017-10-30T08:43:25.751Z,4.30
2017-10-30T08:45:52.067Z,2.17
2017-10-30T08:48:18.385Z,3.37
2017-10-30T08:50:44.704Z,2.83
2017-10-30T08:53:11.958Z,4.97
2017-10-30T08:55:38.281Z,5.30
2017-10-30T08:58:05.343Z,6.10
2017-10-30T09:00:31.646Z,3.73
2017-10-30T09:02:58.701Z,5.00
2017-10-30T09:05:25.758Z,3.17
2017-10-30T09:07:52.055Z,3.20
2017-10-30T09:10:18.363Z,5.87
2017-10-30T09:12:45.635Z,2.17
2017-10-30T09:15:11.942Z,5.10
2017-10-30T09:17:38.271Z,4.57
2017-10-30T09:20:04.608Z,6.43
2017-10-30T09:22:30.943Z,2.77
2017-10-30T09:24:57.275Z,7.57
2017-10-30T09:27:23.601Z,4.10
2017-10-30T09:29:49.987Z,4.00
2017-10-30T09:32:16.337Z,4.50
2017-10-30T09:34:42.653Z,6.47
2017-10-30T09:37:08.992Z,4.23
2017-10-30T09:39:35.329Z,4.20
2017-10-30T09:42:01.664Z,3.43
2017-10-30T09:44:27.985Z,1.60
2017-10-30T09:46:54.440Z,3.27
2017-10-30T09:49:21.601Z,3.00
2017-10-30T09:51:47.956Z,3.27
2017-10-30T09:54:14.341Z,5.97
2017-10-30T09:56:40.664Z,3.73
2017-10-30T09:59:07.079Z,3.00
2017-10-30T10:01:33.441Z,4.30
2017-10-30T10:03:59.786Z,4.43
2017-10-30T10:06:26.130Z,3.67
2017-10-30T10:08:53.200Z,2.70
2017-10-30T10:11:19.532Z,3.07
2017-10-30T10:13:46.596Z,5.03
2017-10-30T10:16:13.292Z,2.23
2017-10-30T10:18:39.662Z,4.67
2017-10-30T10:21:06.162Z,2.40
2017-10-30T10:23:32.501Z,3.17
2017-10-30T10:25:58.860Z,5.73
2017-10-30T10:28:25.193Z,4.33
2017-10-30T10:30:51.564Z,3.73
2017-10-30T10:33:17.893Z,2.43
2017-10-30T10:35:44.219Z,3.73
2017-10-30T10:38:10.576Z,3.10
2017-10-30T10:40:36.918Z,2.67
2017-10-30T10:43:04.012Z,2.80
2017-10-30T10:45:30.338Z,2.90
2017-10-30T10:47:56.659Z,3.17
2017-10-30T10:50:22.968Z,3.77
2017-10-30T10:52:50.057Z,5.50
2017-10-30T10:55:16.379Z,2.90
2017-10-30T10:57:42.689Z,2.20
2017-10-30T11:00:09.757Z,2.40
2017-10-30T11:02:36.091Z,2.43
2017-10-30T11:05:02.446Z,1.83
2017-10-30T11:07:28.797Z,3.10
2017-10-30T11:09:55.116Z,3.27
2017-10-30T11:12:21.401Z,4.77
2017-10-30T11:14:47.796Z,3.47
2017-10-30T11:17:14.115Z,4.80
2017-10-30T11:19:40.443Z,3.60
2017-10-30T11:22:06.828Z,3.27
2017-10-30T11:24:33.218Z,1.90
2017-10-30T11:27:00.330Z,4.67
2017-10-30T11:29:26.698Z,2.90
2017-10-30T11:31:53.770Z,3.00
2017-10-30T11:34:20.834Z,3.37
2017-10-30T11:36:47.142Z,2.00
2017-10-30T11:39:15.233Z,1.77
2017-10-30T11:41:43.291Z,2.37
2017-10-30T11:44:09.613Z,2.93
2017-10-30T11:46:36.672Z,1.17
2017-10-30T11:49:19.523Z,1.33
2017-10-30T11:51:45.847Z,1.70
2017-10-30T11:54:12.180Z,1.53
2017-10-30T11:56:38.493Z,2.07
2017-10-30T11:59:04.818Z,3.53
2017-10-30T12:01:31.124Z,4.93
2017-10-30T12:03:57.423Z,1.90
2017-10-30T12:06:23.722Z,3.37
2017-10-30T12:08:50.028Z,3.40
2017-10-30T12:11:16.333Z,2.07
2017-10-30T12:13:42.647Z,2.80
2017-10-30T12:16:08.950Z,2.07
2017-10-30T12:18:35.391Z,4.67
2017-10-30T12:21:02.610Z,7.13
2017-10-30T12:23:28.909Z,2.20
2017-10-30T12:25:55.197Z,2.30
2017-10-30T12:28:21.512Z,1.93
2017-10-30T12:30:47.797Z,2.43
2017-10-30T12:33:14.111Z,2.37
2017-10-30T12:35:40.410Z,2.17
2017-10-30T12:38:06.716Z,1.73
2017-10-30T12:40:33.028Z,4.40
2017-10-30T12:43:00.061Z,2.40
2017-10-30T12:45:26.338Z,2.80
2017-10-30T12:47:52.649Z,4.50
2017-10-30T12:50:19.672Z,2.80
2017-10-30T12:52:46.735Z,3.03
2017-10-30T12:55:13.939Z,2.77
2017-10-30T12:57:40.241Z,3.90
2017-10-30T13:00:06.634Z,3.00
2017-10-30T13:02:33.685Z,4.87
2017-10-30T13:05:00.040Z,2.50
2017-10-30T13:07:26.382Z,2.63
2017-10-30T13:09:53.134Z,1.33
2017-10-30T13:12:19.523Z,2.23
2017-10-30T13:14:45.895Z,1.20
2017-10-30T13:17:12.292Z,3.23
2017-10-30T13:19:38.649Z,2.97
2017-10-30T13:22:04.996Z,2.10
2017-10-30T13:24:31.440Z,2.70
2017-10-30T13:26:57.737Z,3.37
2017-10-30T13:29:24.833Z,1.43
2017-10-30T13:31:51.564Z,2.50
2017-10-30T13:34:18.550Z,3.37
2017-10-30T13:36:44.972Z,3.13
2017-10-30T13:39:12.038Z,1.80
2017-10-30T13:41:38.431Z,3.90
2017-10-30T13:44:05.518Z,2.37
2017-10-30T13:46:31.865Z,2.87
2017-10-30T13:48:58.184Z,3.90
2017-10-30T13:51:24.561Z,4.50
2017-10-30T13:53:50.988Z,4.70
2017-10-30T13:56:17.377Z,5.13
2017-10-30T13:58:43.760Z,2.63
2017-10-30T14:01:12.675Z,6.23
2017-10-30T14:03:39.898Z,4.43
2017-10-30T14:06:07.014Z,5.60
2017-10-30T14:08:33.377Z,3.20
2017-10-30T14:10:59.778Z,3.23
2017-10-30T14:13:26.197Z,2.60
2017-10-30T14:15:53.117Z,2.70
2017-10-30T14:18:19.569Z,6.60
2017-10-30T14:20:45.886Z,3.10
2017-10-30T14:23:12.380Z,2.37
2017-10-30T14:25:39.587Z,4.40
2017-10-30T14:28:06.287Z,2.70
2017-10-30T14:30:32.798Z,4.20
2017-10-30T14:33:01.691Z,3.70
2017-10-30T14:35:28.148Z,4.10
2017-10-30T14:37:55.292Z,2.53
2017-10-30T14:40:22.427Z,7.00
2017-10-30T14:42:48.895Z,4.23
2017-10-30T14:45:15.314Z,4.40
2017-10-30T14:47:42.515Z,7.50
2017-10-30T14:50:08.911Z,8.83
2017-10-30T14:52:35.261Z,9.43
2017-10-30T14:55:01.656Z,5.30
2017-10-30T14:57:28.038Z,5.23
2017-10-30T14:59:54.412Z,5.60
2017-10-30T15:02:21.543Z,8.93
2017-10-30T15:04:47.917Z,12.73
2017-10-30T15:07:14.298Z,11.27
2017-10-30T15:09:41.456Z,12.50
2017-10-30T15:12:08.623Z,11.30
2017-10-30T15:14:35.024Z,11.40
2017-10-30T15:17:01.417Z,13.70
2017-10-30T15:19:27.853Z,11.93
2017-10-30T15:21:54.199Z,13.37
2017-10-30T15:24:20.578Z,15.80
2017-10-30T15:26:48.294Z,15.50
2017-10-30T15:29:14.714Z,15.03
2017-10-30T15:31:41.099Z,18.43
2017-10-30T15:34:07.413Z,12.47
2017-10-30T15:36:33.841Z,9.03
2017-10-30T15:39:00.213Z,10.13
2017-10-30T15:41:26.619Z,8.00
2017-10-30T15:43:53.752Z,4.67
2017-10-30T15:46:20.119Z,3.97
2017-10-30T15:48:47.215Z,7.27
2017-10-30T15:51:13.579Z,4.47
2017-10-30T15:53:47.765Z,2.97
2017-10-30T15:56:14.159Z,3.30
2017-10-30T15:58:41.220Z,2.47
2017-10-30T16:01:08.321Z,3.10
2017-10-30T16:03:34.627Z,6.17
2017-10-30T16:06:00.942Z,5.07
2017-10-30T16:08:27.269Z,2.90
2017-10-30T16:10:53.565Z,5.13
2017-10-30T16:13:19.888Z,3.73
2017-10-30T16:15:46.181Z,3.07
2017-10-30T16:18:12.568Z,7.57
2017-10-30T16:20:39.608Z,2.90
2017-10-30T16:23:06.714Z,3.63
2017-10-30T16:25:33.060Z,3.80
2017-10-30T16:27:59.414Z,3.60
2017-10-30T16:30:26.617Z,4.00
2017-10-30T16:32:52.952Z,5.97
2017-10-30T16:35:19.337Z,5.93
2017-10-30T16:37:46.395Z,3.07
2017-10-30T16:40:13.466Z,2.07
2017-10-30T16:42:39.826Z,6.23
2017-10-30T16:45:06.139Z,4.93
2017-10-30T16:47:32.476Z,6.50
2017-10-30T16:49:58.833Z,6.73
2017-10-30T16:52:25.190Z,4.40
2017-10-30T16:54:51.541Z,7.10
2017-10-30T16:57:17.850Z,8.50
2017-10-30T16:59:44.889Z,10.93
2017-10-30T17:02:11.919Z,10.27
2017-10-30T17:04:38.232Z,10.33
2017-10-30T17:07:04.540Z,7.00
2017-10-30T17:09:30.894Z,34.37
2017-10-30T17:11:57.209Z,13.87
2017-10-30T17:14:23.491Z,11.93
2017-10-30T17:16:49.823Z,11.43
2017-10-30T17:19:16.866Z,9.10
2017-10-30T17:21:43.902Z,7.40
2017-10-30T17:24:13.319Z,8.80
2017-10-30T17:26:40.347Z,11.00
2017-10-30T17:29:06.715Z,10.87
2017-10-30T17:31:33.050Z,13.03
2017-10-30T17:33:59.335Z,16.97
2017-10-30T17:36:25.646Z,15.00
2017-10-30T17:38:51.928Z,15.30
2017-10-30T17:41:18.215Z,15.33
2017-10-30T17:43:44.474Z,16.10
2017-10-30T17:46:10.813Z,13.87
2017-10-30T17:48:37.849Z,14.30
2017-10-30T17:51:04.886Z,14.50
2017-10-30T17:53:32.646Z,13.67
2017-10-30T17:55:58.938Z,12.10
2017-10-30T17:58:25.201Z,11.17
2017-10-30T18:00:51.486Z,10.00
2017-10-30T18:03:17.775Z,9.87
2017-10-30T18:05:44.813Z,9.40
2017-10-30T18:08:11.084Z,6.33
2017-10-30T18:10:37.369Z,7.00
2017-10-30T18:13:03.957Z,7.67
2017-10-30T18:15:30.240Z,7.20
2017-10-30T18:17:56.506Z,8.07
2017-10-30T18:20:22.814Z,7.83
2017-10-30T18:22:50.355Z,8.53
2017-10-30T18:25:16.649Z,9.40
2017-10-30T18:27:42.967Z,6.87
2017-10-30T18:30:09.247Z,11.23
2017-10-30T18:32:35.529Z,6.10
2017-10-30T18:35:02.647Z,4.47
2017-10-30T18:37:29.687Z,5.43
2017-10-30T18:39:56.700Z,5.50
2017-10-30T18:42:22.978Z,4.60
2017-10-30T18:44:49.257Z,4.40
2017-10-30T18:47:15.549Z,6.33
2017-10-30T18:49:41.818Z,5.47
2017-10-30T18:52:08.097Z,3.80
2017-10-30T18:54:34.387Z,4.30
2017-10-30T18:57:00.677Z,5.00
2017-10-30T18:59:26.934Z,4.90
2017-10-30T19:01:53.209Z,5.00
2017-10-30T19:04:19.493Z,5.90
2017-10-30T19:06:45.760Z,8.93
2017-10-30T19:09:12.778Z,6.77
2017-10-30T19:11:39.053Z,7.10
2017-10-30T19:14:05.333Z,8.83
2017-10-30T19:16:32.140Z,7.30
2017-10-30T19:18:58.447Z,10.47
2017-10-30T19:21:25.783Z,8.63
2017-10-30T19:23:52.915Z,9.93
2017-10-30T19:26:19.400Z,10.97
2017-10-30T19:28:45.871Z,9.07
2017-10-30T19:31:12.158Z,10.30
2017-10-30T19:33:38.440Z,9.63
2017-10-30T19:36:05.875Z,11.10
2017-10-30T19:38:32.177Z,14.50
2017-10-30T19:40:58.467Z,15.87
2017-10-30T19:43:24.786Z,18.17
2017-10-30T19:45:51.113Z,18.43
2017-10-30T19:48:17.523Z,18.40
2017-10-30T19:50:43.814Z,18.47
2017-10-30T19:53:10.095Z,17.20
2017-10-30T19:55:36.486Z,17.83
2017-10-30T19:58:02.794Z,14.00
2017-10-30T20:00:29.850Z,13.87
2017-10-30T20:02:57.963Z,16.00
2017-10-30T20:05:30.288Z,14.00
2017-10-30T20:07:56.656Z,12.23
2017-10-30T20:10:29.009Z,10.60
2017-10-30T20:12:55.293Z,10.60
2017-10-30T20:15:22.155Z,16.70
2017-10-30T20:17:48.461Z,13.73
2017-10-30T20:20:14.778Z,8.90
2017-10-30T20:22:41.054Z,10.10
2017-10-30T20:25:08.191Z,9.03
2017-10-30T20:27:35.214Z,8.57
2017-10-30T20:30:01.676Z,10.73
2017-10-30T20:32:27.979Z,10.87
2017-10-30T20:34:54.261Z,7.90
2017-10-30T20:37:20.593Z,7.97
2017-10-30T20:39:46.883Z,9.27
2017-10-30T20:42:13.938Z,6.17
2017-10-30T20:44:40.995Z,6.70
2017-10-30T20:47:08.090Z,7.60
2017-10-30T20:49:34.416Z,7.50
2017-10-30T20:52:00.742Z,9.20
2017-10-30T20:54:27.031Z,7.47
2017-10-30T20:56:54.114Z,7.80
2017-10-30T20:59:20.867Z,7.60
2017-10-30T21:01:47.233Z,6.43
2017-10-30T21:04:14.265Z,5.47
2017-10-30T21:06:40.837Z,3.30
2017-10-30T21:09:07.161Z,10.37
2017-10-30T21:11:33.486Z,5.20
2017-10-30T21:14:00.501Z,6.93
2017-10-30T21:16:27.510Z,4.60
2017-10-30T21:18:53.802Z,5.37
2017-10-30T21:21:20.100Z,7.73
2017-10-30T21:23:46.394Z,6.73
2017-10-30T21:26:12.665Z,5.60
2017-10-30T21:28:39.005Z,3.97
2017-10-30T21:31:05.336Z,6.60
2017-10-30T21:33:31.623Z,7.40
2017-10-30T21:35:57.895Z,7.10
2017-10-30T21:38:24.201Z,6.33
2017-10-30T21:40:50.521Z,3.70
2017-10-30T21:43:16.862Z,4.27
2017-10-30T21:45:43.154Z,6.67
2017-10-30T21:48:09.457Z,4.57
2017-10-30T21:50:36.535Z,4.90
2017-10-30T21:53:02.813Z,6.47
2017-10-30T21:55:29.111Z,6.83
2017-10-30T21:57:56.226Z,6.37
2017-10-30T22:00:23.258Z,5.47
2017-10-30T22:02:49.586Z,4.43
2017-10-30T22:05:16.681Z,3.90
2017-10-30T22:07:43.093Z,6.80
2017-10-30T22:10:09.397Z,4.20
2017-10-30T22:12:36.433Z,8.80
2017-10-30T22:15:02.769Z,4.93
2017-10-30T22:17:29.060Z,4.87
2017-10-30T22:19:55.386Z,4.90
2017-10-30T22:22:21.679Z,4.67
2017-10-30T22:24:48.707Z,5.80
2017-10-30T22:27:14.980Z,5.90
2017-10-30T22:29:41.255Z,5.93
2017-10-30T22:32:07.598Z,8.27
2017-10-30T22:34:35.077Z,5.20
2017-10-30T22:37:01.378Z,5.10
2017-10-30T22:39:27.645Z,3.83
2017-10-30T22:41:53.921Z,5.67
2017-10-30T22:44:27.130Z,5.90
2017-10-30T22:46:53.413Z,4.40
2017-10-30T22:49:19.690Z,5.00
2017-10-30T22:51:46.805Z,5.23
2017-10-30T22:54:13.103Z,8.07
2017-10-30T22:56:39.390Z,6.07
2017-10-30T22:59:05.650Z,5.93
2017-10-30T23:01:32.687Z,4.73
2017-10-30T23:03:58.955Z,6.17
2017-10-30T23:06:25.232Z,6.47
2017-10-30T23:08:51.806Z,4.33
2017-10-30T23:11:18.088Z,6.00
2017-10-30T23:13:45.130Z,5.00
2017-10-30T23:16:11.427Z,5.87
2017-10-30T23:18:38.982Z,6.07
2017-10-30T23:21:06.071Z,8.03
2017-10-30T23:23:33.365Z,8.37
2017-10-30T23:25:59.695Z,6.70
2017-10-30T23:28:25.981Z,4.67
2017-10-30T23:30:52.277Z,4.63
2017-10-30T23:33:18.563Z,3.80
2017-10-30T23:35:45.571Z,6.40
2017-10-30T23:38:11.864Z,6.57
2017-10-30T23:40:38.134Z,4.90
2017-10-30T23:43:04.398Z,8.70
2017-10-30T23:45:30.698Z,8.33
2017-10-30T23:47:56.977Z,5.90
2017-10-30T23:50:23.247Z,5.63
2017-10-30T23:52:49.551Z,5.97
2017-10-30T23:55:16.114Z,9.27
2017-10-30T23:57:42.460Z,7.77
